Time;durP1;ratioP1;P1;durP2;ratioP2;P2;SDS_P1;SDS_P2;PMS_P1;PMS_P2;Temp;Humidity;BMP_temperature;BMP_pressure;BME280_temperature;BME280_humidity;BME280_pressure;Samples;Min_cycle;Max_cycle;Signal;HPM_P1;HPM_P2
2022/05/03 00:02:25;;;;;;;12.88;9.10;;;12.30;99.90;;;;;;5018390;28;20116;-83
2022/05/03 00:05:56;;;;;;;11.57;9.30;;;12.30;99.90;;;;;;5026051;28;20045;-83
2022/05/03 00:08:42;;;;;;;14.70;9.70;;;12.20;99.90;;;;;;4980773;28;20042;-84
2022/05/03 00:11:24;;;;;;;12.02;9.05;;;12.10;99.90;;;;;;4984661;28;20026;-85
2022/05/03 00:13:53;;;;;;;12.90;9.30;;;12.20;99.90;;;;;;5030583;28;20083;-87
2022/05/03 00:16:24;;;;;;;14.60;9.80;;;12.10;99.90;;;;;;5025700;28;20021;-85
2022/05/03 00:18:50;;;;;;;16.70;9.85;;;12.10;99.90;;;;;;5038220;28;20024;-86
2022/05/03 00:21:16;;;;;;;16.55;9.25;;;;;;;;;;5024260;28;20498;-84
2022/05/03 00:23:43;;;;;;;12.52;9.23;;;12.00;99.90;;;;;;5026498;28;20293;-84
2022/05/03 00:26:12;;;;;;;17.33;9.20;;;;;;;;;;5040397;28;20072;-85
2022/05/03 00:28:41;;;;;;;12.00;9.15;;;11.90;99.90;;;;;;5039095;28;20622;-86
2022/05/03 00:31:08;;;;;;;15.80;9.43;;;11.90;99.90;;;;;;5018303;28;20567;-84
2022/05/03 00:33:34;;;;;;;14.80;10.05;;;11.90;99.90;;;;;;5040775;28;20025;-83
2022/05/03 00:36:02;;;;;;;15.07;10.10;;;11.80;99.90;;;;;;5022291;28;20487;-82
2022/05/03 00:38:34;;;;;;;14.65;10.15;;;;;;;;;;5027612;28;20029;-83
2022/05/03 00:41:02;;;;;;;17.58;10.80;;;11.80;99.90;;;;;;5024860;28;20049;-83
2022/05/03 00:43:44;;;;;;;17.38;11.13;;;11.80;99.90;;;;;;5046564;28;20036;-83
2022/05/03 00:46:20;;;;;;;16.85;10.60;;;11.80;99.90;;;;;;5039248;28;20022;-85
2022/05/03 00:49:12;;;;;;;14.13;10.02;;;11.80;99.90;;;;;;5014727;28;20040;-83
2022/05/03 00:52:02;;;;;;;15.77;11.40;;;12.00;99.90;;;;;;5017814;28;20049;-84
2022/05/03 00:54:57;;;;;;;15.20;11.20;;;11.70;99.90;;;;;;4987917;28;20044;-85
2022/05/03 00:57:53;;;;;;;14.73;10.75;;;11.70;99.90;;;;;;5037591;28;20489;-84
2022/05/03 01:00:21;;;;;;;13.82;10.07;;;11.60;99.90;;;;;;5033778;28;20482;-83
2022/05/03 01:03:14;;;;;;;16.52;12.13;;;11.60;99.90;;;;;;5038519;28;20658;-83
2022/05/03 01:05:59;;;;;;;19.35;13.18;;;11.60;99.90;;;;;;5033486;28;20083;-81
2022/05/03 01:08:35;;;;;;;17.85;10.82;;;11.60;99.90;;;;;;5021134;28;20246;-85
2022/05/03 01:11:23;;;;;;;21.20;13.70;;;11.60;99.90;;;;;;5039282;28;20029;-84
2022/05/03 01:14:21;;;;;;;17.55;11.38;;;11.50;99.90;;;;;;5019975;28;20029;-82
2022/05/03 01:16:54;;;;;;;14.48;10.23;;;11.50;99.90;;;;;;5040301;28;20041;-84
2022/05/03 01:19:31;;;;;;;14.88;10.30;;;11.40;99.90;;;;;;5034962;28;20109;-83
2022/05/03 01:22:22;;;;;;;13.55;10.52;;;11.50;99.90;;;;;;5038221;28;20025;-84
2022/05/03 01:24:57;;;;;;;;;;;11.40;99.90;;;;;;5019489;28;20030;-84
2022/05/03 01:27:56;;;;;;;13.57;9.63;;;11.30;99.90;;;;;;5015995;28;20358;-85
2022/05/03 01:30:22;;;;;;;12.50;10.02;;;11.40;99.90;;;;;;5008596;28;20037;-87
2022/05/03 01:32:50;;;;;;;14.27;9.95;;;12.70;99.90;;;;;;5028899;28;20022;-85
2022/05/03 01:35:21;;;;;;;11.73;9.95;;;11.30;99.90;;;;;;5033856;28;20033;-84
2022/05/03 01:38:28;;;;;;;12.07;9.52;;;11.30;99.90;;;;;;5005394;28;20029;-85
2022/05/03 01:41:07;;;;;;;15.65;9.52;;;11.20;99.90;;;;;;5010081;28;20084;-86
2022/05/03 01:43:56;;;;;;;13.95;9.38;;;11.20;99.90;;;;;;5026180;28;20030;-85
2022/05/03 01:46:29;;;;;;;12.27;9.50;;;11.20;99.90;;;;;;5020619;28;20021;-86
2022/05/03 01:52:12;;;;;;;22.17;9.80;;;11.10;99.90;;;;;;5023236;28;20406;-83
2022/05/03 01:55:03;;;;;;;11.20;9.20;;;11.10;99.90;;;;;;5023618;28;20029;-83
2022/05/03 01:57:54;;;;;;;14.43;10.25;;;11.10;99.90;;;;;;5007814;28;20033;-86
2022/05/03 02:00:20;;;;;;;;;;;11.00;99.90;;;;;;5008766;28;20034;-85
2022/05/03 02:03:01;;;;;;;14.48;9.27;;;11.10;99.90;;;;;;5012535;28;19917;-86
2022/05/03 02:05:53;;;;;;;14.82;9.90;;;11.00;99.90;;;;;;5005188;28;20041;-85
2022/05/03 02:08:21;;;;;;;12.43;9.57;;;10.90;99.90;;;;;;5008703;28;20037;-85
2022/05/03 02:10:57;;;;;;;13.38;10.50;;;10.90;99.90;;;;;;5007026;28;20033;-84
2022/05/03 02:14:43;;;;;;;12.25;9.20;;;11.00;99.90;;;;;;5028799;28;20116;-86
2022/05/03 02:16:21;;;;;;;11.75;9.48;;;10.90;99.90;;;;;;5036054;28;20069;-83
2022/05/03 02:19:07;;;;;;;13.25;9.30;;;10.80;99.90;;;;;;5012482;28;20111;-85
2022/05/03 02:21:49;;;;;;;13.18;10.13;;;10.80;99.90;;;;;;5008239;28;20093;-84
2022/05/03 02:24:43;;;;;;;15.65;9.88;;;11.00;99.90;;;;;;5006307;28;20029;-85
2022/05/03 02:27:10;;;;;;;12.60;9.70;;;10.70;99.90;;;;;;5022693;28;20030;-84
2022/05/03 02:29:56;;;;;;;13.73;10.43;;;10.70;99.90;;;;;;5025174;28;20108;-81
2022/05/03 02:32:42;;;;;;;12.05;9.60;;;10.70;99.90;;;;;;5002468;28;20101;-84
2022/05/03 02:35:19;;;;;;;13.43;9.55;;;10.70;99.90;;;;;;5012331;28;20032;-82
2022/05/03 02:37:53;;;;;;;11.93;10.25;;;10.70;99.90;;;;;;5023112;28;20112;-81
2022/05/03 02:40:22;;;;;;;13.20;9.88;;;10.90;99.90;;;;;;5003433;28;20055;-84
2022/05/03 02:42:51;;;;;;;13.48;9.57;;;10.70;99.90;;;;;;5008409;28;20053;-85
2022/05/03 02:45:18;;;;;;;12.95;9.05;;;10.70;99.90;;;;;;5026443;28;20026;-85
2022/05/03 02:47:46;;;;;;;14.93;9.93;;;10.60;99.90;;;;;;5005826;28;20397;-87
2022/05/03 02:50:18;;;;;;;13.50;10.27;;;10.60;99.90;;;;;;5006972;28;20493;-84
2022/05/03 02:52:55;;;;;;;13.68;10.05;;;10.60;99.90;;;;;;5000110;28;20022;-84
2022/05/03 02:55:40;;;;;;;14.90;10.25;;;10.60;99.90;;;;;;5001746;28;20018;-85
2022/05/03 02:58:42;;;;;;;13.15;10.23;;;10.50;99.90;;;;;;5007413;28;20037;-87
2022/05/03 03:04:03;;;;;;;13.70;10.10;;;10.50;99.90;;;;;;5021143;28;20568;-85
2022/05/03 03:06:38;;;;;;;12.88;9.77;;;10.50;99.90;;;;;;5023144;28;20097;-82
2022/05/03 03:09:06;;;;;;;13.13;10.15;;;11.80;99.90;;;;;;5006333;28;20044;-84
2022/05/03 03:11:38;;;;;;;13.27;9.75;;;11.90;99.90;;;;;;5026871;28;20119;-83
2022/05/03 03:14:31;;;;;;;13.55;9.70;;;10.40;99.90;;;;;;5024188;28;20470;-83
2022/05/03 03:17:04;;;;;;;14.07;10.15;;;10.40;99.90;;;;;;5006628;28;20453;-83
2022/05/03 03:20:07;;;;;;;12.75;9.38;;;10.40;99.90;;;;;;5005316;28;20504;-85
2022/05/03 03:22:41;;;;;;;12.23;10.10;;;10.30;99.90;;;;;;5020172;28;20416;-84
2022/05/03 03:25:10;;;;;;;13.98;9.80;;;10.20;99.90;;;;;;5031374;28;20193;-82
2022/05/03 03:27:38;;;;;;;16.38;9.95;;;10.20;99.90;;;;;;5024084;28;20022;-85
2022/05/03 03:30:06;;;;;;;12.98;9.68;;;11.10;99.90;;;;;;5029045;28;20029;-83
2022/05/03 03:32:34;;;;;;;12.52;10.27;;;10.20;99.90;;;;;;5025004;28;20852;-86
2022/05/03 03:35:02;;;;;;;14.65;10.70;;;10.20;99.90;;;;;;5012928;28;20024;-85
2022/05/03 03:37:30;;;;;;;13.45;10.57;;;10.20;99.90;;;;;;5007541;28;20494;-85
2022/05/03 03:39:56;;;;;;;12.48;10.38;;;10.10;99.90;;;;;;5035135;28;20025;-85
2022/05/03 03:42:22;;;;;;;14.77;10.35;;;10.60;99.90;;;;;;5033985;28;20033;-84
2022/05/03 03:44:48;;;;;;;13.82;10.10;;;10.20;99.90;;;;;;5032818;28;20041;-84
2022/05/03 03:47:15;;;;;;;13.15;9.93;;;10.10;99.90;;;;;;5029747;28;20040;-85
2022/05/03 03:49:41;;;;;;;14.30;10.38;;;10.00;99.90;;;;;;5018162;28;20092;-85
2022/05/03 03:52:08;;;;;;;13.50;10.07;;;10.80;99.90;;;;;;5013254;28;20029;-83
2022/05/03 03:54:40;;;;;;;12.48;10.63;;;11.10;99.90;;;;;;5037358;28;20040;-84
2022/05/03 03:57:07;;;;;;;15.43;10.60;;;10.00;99.90;;;;;;5015133;28;20036;-83
2022/05/03 03:59:33;;;;;;;14.68;10.82;;;10.00;99.90;;;;;;5014391;28;20034;-82
2022/05/03 04:02:00;;;;;;;13.77;10.35;;;10.00;99.90;;;;;;5011041;28;20069;-82
2022/05/03 04:04:36;;;;;;;13.98;10.30;;;11.20;99.90;;;;;;5011687;28;20096;-86
2022/05/03 04:07:03;;;;;;;11.80;9.80;;;9.90;99.90;;;;;;5011314;28;20114;-83
2022/05/03 04:09:28;;;;;;;14.93;10.82;;;9.90;99.90;;;;;;5006913;28;20034;-83
2022/05/03 04:11:54;;;;;;;16.42;10.40;;;9.90;99.90;;;;;;5029314;28;20025;-80
2022/05/03 04:14:20;;;;;;;13.85;10.95;;;9.90;99.90;;;;;;5026821;28;20286;-83
2022/05/03 04:16:47;;;;;;;14.65;10.35;;;9.90;99.90;;;;;;5012852;28;20442;-84
2022/05/03 04:19:13;;;;;;;13.25;10.07;;;9.90;99.90;;;;;;5023771;28;20034;-81
2022/05/03 04:21:39;;;;;;;14.45;10.18;;;9.80;99.90;;;;;;5038097;28;20330;-83
2022/05/03 04:24:06;;;;;;;12.75;10.20;;;9.90;99.90;;;;;;5027376;28;20102;-82
2022/05/03 04:26:32;;;;;;;14.07;10.43;;;9.80;99.90;;;;;;5034788;28;20063;-84
2022/05/03 04:28:59;;;;;;;14.98;11.35;;;10.30;99.90;;;;;;5034510;28;20088;-84
2022/05/03 04:31:29;;;;;;;12.25;10.07;;;9.80;99.90;;;;;;5013052;28;20104;-85
2022/05/03 04:33:55;;;;;;;16.58;10.65;;;10.90;99.90;;;;;;5015921;28;20029;-87
2022/05/03 04:36:21;;;;;;;13.88;10.77;;;9.80;99.90;;;;;;5031428;28;20045;-82
2022/05/03 04:38:50;;;;;;;13.32;10.77;;;9.80;99.90;;;;;;5033038;28;20041;-85
2022/05/03 04:41:15;;;;;;;13.43;10.75;;;9.80;99.90;;;;;;5016284;28;20021;-85
2022/05/03 04:43:43;;;;;;;13.68;11.05;;;9.80;99.90;;;;;;5012934;28;20052;-85
2022/05/03 04:46:09;;;;;;;13.85;10.50;;;9.90;99.90;;;;;;5012611;28;20040;-86
2022/05/03 04:48:35;;;;;;;14.27;10.25;;;9.80;99.90;;;;;;5033824;28;20025;-86
2022/05/03 04:51:01;;;;;;;11.80;9.55;;;;;;;;;;5016259;28;20033;-86
2022/05/03 04:53:26;;;;;;;15.00;10.50;;;9.90;99.90;;;;;;5014603;28;20084;-84
2022/05/03 04:55:52;;;;;;;14.00;10.73;;;9.90;99.90;;;;;;5013214;28;20021;-82
2022/05/03 04:58:18;;;;;;;18.08;10.75;;;;;;;;;;5017378;28;20026;-85
2022/05/03 05:00:45;;;;;;;14.32;10.85;;;9.90;99.90;;;;;;5038146;28;20100;-86
2022/05/03 05:03:11;;;;;;;16.63;10.32;;;9.90;99.90;;;;;;5013598;28;20034;-85
2022/05/03 05:05:36;;;;;;;16.95;10.70;;;9.80;99.90;;;;;;5014057;28;20033;-85
2022/05/03 05:08:04;;;;;;;17.15;10.40;;;9.80;99.90;;;;;;5036134;28;20030;-82
2022/05/03 05:10:31;;;;;;;14.95;10.65;;;10.00;99.90;;;;;;5036969;28;20041;-84
2022/05/03 05:12:58;;;;;;;14.95;10.68;;;9.90;99.90;;;;;;5020276;28;20113;-86
2022/05/03 05:15:24;;;;;;;16.67;11.38;;;9.80;99.90;;;;;;5041394;28;20043;-88
2022/05/03 05:17:51;;;;;;;14.70;11.25;;;9.90;99.90;;;;;;5044195;28;20398;-83
2022/05/03 05:20:17;;;;;;;13.38;9.48;;;9.80;99.90;;;;;;5047530;28;20033;-85
2022/05/03 05:22:43;;;;;;;14.35;10.60;;;10.00;99.90;;;;;;5023428;28;20097;-84
2022/05/03 05:25:09;;;;;;;15.00;11.30;;;11.40;99.90;;;;;;5026819;28;20025;-86
2022/05/03 05:27:35;;;;;;;13.00;10.65;;;11.50;99.90;;;;;;5014279;28;20401;-86
2022/05/03 05:30:01;;;;;;;15.23;10.70;;;;;;;;;;5016105;28;20117;-82
2022/05/03 05:32:26;;;;;;;17.98;12.50;;;10.10;99.90;;;;;;5033101;28;20021;-86
2022/05/03 05:34:52;;;;;;;14.88;10.52;;;10.20;99.90;;;;;;5033061;28;20063;-86
2022/05/03 05:37:18;;;;;;;17.60;11.85;;;10.30;99.90;;;;;;5010393;28;20062;-87
2022/05/03 05:39:44;;;;;;;16.05;10.82;;;;;;;;;;5030705;28;20052;-85
2022/05/03 05:42:11;;;;;;;14.63;10.52;;;10.40;99.90;;;;;;5012521;28;20033;-87
2022/05/03 05:44:37;;;;;;;14.40;10.45;;;10.50;99.90;;;;;;5028597;28;20097;-86
2022/05/03 05:47:07;;;;;;;15.32;10.73;;;10.40;99.90;;;;;;5023999;28;20034;-84
2022/05/03 05:49:32;;;;;;;14.85;11.13;;;10.50;99.90;;;;;;5016082;28;20037;-86
2022/05/03 05:54:43;;;;;;;17.15;11.27;;;10.60;99.90;;;;;;5029230;28;20028;-86
2022/05/03 05:57:09;;;;;;;13.00;10.90;;;10.70;99.90;;;;;;5012490;28;20029;-84
2022/05/03 05:59:35;;;;;;;15.23;10.70;;;10.80;99.90;;;;;;5037222;28;20021;-82
2022/05/03 06:02:01;;;;;;;16.58;11.27;;;10.90;99.90;;;;;;5038212;28;20033;-84
2022/05/03 06:04:29;;;;;;;16.92;10.75;;;10.90;99.90;;;;;;5025545;28;20029;-85
2022/05/03 06:06:58;;;;;;;17.40;11.38;;;11.00;99.90;;;;;;5026121;28;20119;-83
2022/05/03 06:09:24;;;;;;;16.35;11.43;;;11.10;99.90;;;;;;5023576;28;20097;-86
2022/05/03 06:11:49;;;;;;;77.15;14.32;;;11.20;99.90;;;;;;5033705;28;20064;-83
2022/05/03 06:14:15;;;;;;;24.23;12.15;;;11.40;99.90;;;;;;5034344;28;20072;-84
2022/05/03 06:16:52;;;;;;;15.25;10.85;;;11.50;99.90;;;;;;5017335;28;20033;-83
2022/05/03 06:19:17;;;;;;;14.95;11.40;;;11.60;99.90;;;;;;5026813;28;20043;-84
2022/05/03 06:21:43;;;;;;;16.60;11.38;;;11.70;99.90;;;;;;5031012;28;20112;-88
2022/05/03 06:24:10;;;;;;;15.75;11.55;;;11.90;99.90;;;;;;5020466;28;20030;-85
2022/05/03 06:26:36;;;;;;;17.58;11.43;;;12.00;99.90;;;;;;5006715;28;20028;-86
2022/05/03 06:29:03;;;;;;;17.95;12.45;;;12.00;99.90;;;;;;5023498;28;20025;-87
2022/05/03 06:31:29;;;;;;;16.25;11.20;;;12.20;99.90;;;;;;5021699;28;20057;-87
2022/05/03 06:33:56;;;;;;;14.82;11.13;;;12.30;99.90;;;;;;5027763;28;20039;-85
2022/05/03 06:36:22;;;;;;;18.15;12.32;;;13.50;99.90;;;;;;5020896;28;20030;-86
2022/05/03 06:38:48;;;;;;;17.08;11.90;;;13.70;99.90;;;;;;5026920;28;20664;-87
2022/05/03 06:41:16;;;;;;;21.67;11.18;;;12.50;99.90;;;;;;5029150;28;20041;-86
2022/05/03 06:43:42;;;;;;;20.77;12.43;;;12.70;99.90;;;;;;5026623;28;20029;-87
2022/05/03 06:46:08;;;;;;;18.08;11.95;;;12.70;99.90;;;;;;5010319;28;20120;-85
2022/05/03 06:48:33;;;;;;;20.40;12.73;;;13.00;99.90;;;;;;5010022;28;20052;-84
2022/05/03 06:50:59;;;;;;;16.02;11.80;;;13.10;99.90;;;;;;5030075;28;20438;-86
2022/05/03 06:53:25;;;;;;;16.50;11.80;;;;;;;;;;5010261;28;20032;-87
2022/05/03 06:55:51;;;;;;;22.23;12.38;;;;;;;;;;5009965;28;20030;-85
2022/05/03 06:58:17;;;;;;;20.33;12.57;;;;;;;;;;5014363;28;20036;-84
2022/05/03 07:00:43;;;;;;;18.15;12.73;;;13.60;99.90;;;;;;5024059;28;20045;-84
2022/05/03 07:03:09;;;;;;;18.85;12.27;;;13.60;99.90;;;;;;5022136;28;20140;-88
2022/05/03 07:05:35;;;;;;;18.45;12.10;;;;;;;;;;5012091;28;20667;-87
2022/05/03 07:08:01;;;;;;;18.30;12.18;;;13.90;99.90;;;;;;5030260;28;20048;-87
2022/05/03 07:10:27;;;;;;;15.75;11.63;;;14.00;99.90;;;;;;5020297;28;20041;-87
2022/05/03 07:12:52;;;;;;;16.55;11.73;;;15.00;99.90;;;;;;5026315;28;20107;-85
2022/05/03 07:15:18;;;;;;;17.13;11.20;;;14.30;99.90;;;;;;5013163;28;20088;-84
2022/05/03 07:23:15;;;;;;;15.05;10.18;;;14.80;99.90;;;;;;5051669;28;20036;-85
2022/05/03 07:25:41;;;;;;;13.45;11.40;;;14.90;99.90;;;;;;5042229;28;20021;-86
2022/05/03 07:28:07;;;;;;;17.42;11.05;;;15.00;99.90;;;;;;5039394;28;20093;-86
2022/05/03 07:30:34;;;;;;;17.15;11.55;;;15.10;99.90;;;;;;5034654;28;20072;-87
2022/05/03 07:33:00;;;;;;;14.65;11.15;;;15.30;99.90;;;;;;5015474;28;20044;-86
2022/05/03 07:35:26;;;;;;;14.38;10.77;;;15.30;99.90;;;;;;5016127;28;20029;-84
2022/05/03 07:37:52;;;;;;;12.95;10.57;;;15.60;99.90;;;;;;5034580;28;20030;-86
2022/05/03 07:40:18;;;;;;;13.45;11.23;;;16.80;99.90;;;;;;5016511;28;20068;-87
2022/05/03 07:42:44;;;;;;;16.58;11.93;;;;;;;;;;5030108;28;20026;-86
2022/05/03 07:45:10;;;;;;;14.23;10.70;;;;;;;;;;5017424;28;20033;-87
2022/05/03 07:47:36;;;;;;;16.23;10.98;;;15.90;99.90;;;;;;5014084;28;20025;-86
2022/05/03 07:50:04;;;;;;;16.08;10.65;;;16.10;99.90;;;;;;5033068;28;20470;-85
2022/05/03 07:52:29;;;;;;;14.07;11.20;;;16.10;99.90;;;;;;5006166;28;20555;-86
2022/05/03 07:54:55;;;;;;;13.55;10.32;;;16.10;99.90;;;;;;5015296;28;20041;-85
2022/05/03 07:57:22;;;;;;;15.32;10.02;;;;;;;;;;5031938;28;20032;-87
2022/05/03 07:59:47;;;;;;;14.68;10.05;;;16.40;99.90;;;;;;5015397;28;20191;-84
2022/05/03 08:02:13;;;;;;;13.43;9.35;;;16.70;99.90;;;;;;5033020;28;20029;-84
2022/05/03 08:04:42;;;;;;;13.00;9.02;;;16.90;99.90;;;;;;5012295;28;20620;-88
2022/05/03 08:07:07;;;;;;;12.85;7.43;;;17.10;99.90;;;;;;5015002;28;20029;-82
2022/05/03 08:09:34;;;;;;;9.27;7.07;;;17.30;99.90;;;;;;5041279;28;20056;-86
2022/05/03 08:12:00;;;;;;;10.45;7.13;;;17.80;99.90;;;;;;5014830;28;20114;-87
2022/05/03 08:14:28;;;;;;;8.60;7.03;;;18.00;98.80;;;;;;5017052;28;20025;-86
2022/05/03 08:16:55;;;;;;;12.32;7.53;;;17.80;99.20;;;;;;5035038;28;23727;-86
2022/05/03 08:19:22;;;;;;;12.38;7.03;;;18.00;99.00;;;;;;5018308;28;20025;-86
2022/05/03 08:21:48;;;;;;;12.52;7.45;;;;;;;;;;5026742;28;20562;-84
2022/05/03 08:24:13;;;;;;;9.63;6.90;;;18.20;98.20;;;;;;5023202;28;20025;-86
2022/05/03 08:26:39;;;;;;;8.00;6.20;;;;;;;;;;5016342;28;20104;-86
2022/05/03 08:29:05;;;;;;;14.68;6.65;;;18.40;97.20;;;;;;5018086;28;20060;-86
2022/05/03 08:31:31;;;;;;;8.18;6.47;;;18.40;97.10;;;;;;5020475;28;20211;-87
2022/05/03 08:33:56;;;;;;;11.48;6.80;;;18.60;97.00;;;;;;5029517;28;20144;-87
2022/05/03 08:36:22;;;;;;;9.75;6.63;;;18.70;96.80;;;;;;5050320;22;20113;-85
2022/05/03 08:44:17;;;;;;;9.23;6.38;;;18.40;96.40;;;;;;5071881;28;20552;-85
2022/05/03 08:46:43;;;;;;;9.40;6.57;;;18.30;96.60;;;;;;5047211;28;20036;-85
2022/05/03 08:49:14;;;;;;;17.20;6.53;;;18.40;96.10;;;;;;5034462;28;20450;-82
2022/05/03 08:51:42;;;;;;;11.68;6.95;;;18.40;96.30;;;;;;5048253;28;20039;-83
2022/05/03 08:54:08;;;;;;;12.18;6.53;;;18.60;96.20;;;;;;5046299;28;20063;-82
2022/05/03 08:56:35;;;;;;;10.40;6.40;;;;;;;;;;5045966;28;20123;-82
2022/05/03 08:59:01;;;;;;;10.73;5.88;;;18.90;95.60;;;;;;5045710;28;20029;-83
2022/05/03 09:01:26;;;;;;;10.25;6.43;;;18.90;95.70;;;;;;5030930;28;20503;-82
2022/05/03 09:03:52;;;;;;;8.32;6.40;;;18.80;95.50;;;;;;5049167;28;20044;-83
2022/05/03 09:06:18;;;;;;;8.77;6.70;;;18.60;95.70;;;;;;5040840;28;20509;-82
2022/05/03 09:08:51;;;;;;;10.30;6.85;;;18.80;95.30;;;;;;5056672;28;20407;-80
2022/05/03 09:11:18;;;;;;;11.30;6.80;;;18.80;95.40;;;;;;5053827;28;20484;-83
2022/05/03 09:13:45;;;;;;;7.82;6.35;;;19.00;95.10;;;;;;5030329;28;20025;-81
2022/05/03 09:16:17;;;;;;;8.65;6.05;;;19.40;94.20;;;;;;5049594;28;20027;-82
2022/05/03 09:18:44;;;;;;;9.57;6.95;;;19.70;93.60;;;;;;5034361;28;20024;-80
2022/05/03 09:24:10;;;;;;;7.95;5.80;;;19.60;93.90;;;;;;5058073;28;20092;-84
2022/05/03 09:26:37;;;;;;;9.27;6.55;;;20.70;93.30;;;;;;5052353;28;20029;-85
2022/05/03 09:29:14;;;;;;;6.43;5.30;;;19.90;93.20;;;;;;5051688;28;20048;-84
2022/05/03 09:31:50;;;;;;;7.55;5.70;;;20.10;92.50;;;;;;5030892;28;20025;-83
2022/05/03 09:34:27;;;;;;;9.95;5.78;;;21.10;92.30;;;;;;5055468;28;20063;-83
2022/05/03 09:37:09;;;;;;;9.15;5.97;;;20.50;90.90;;;;;;5032008;28;20152;-84
2022/05/03 09:39:42;;;;;;;8.98;6.35;;;20.50;90.90;;;;;;5051228;28;20426;-80
2022/05/03 09:42:19;;;;;;;9.02;5.82;;;20.50;90.80;;;;;;5051412;28;20447;-83
2022/05/03 09:44:53;;;;;;;9.60;5.80;;;20.50;90.80;;;;;;5030687;28;20021;-83
2022/05/03 09:47:20;;;;;;;10.18;5.97;;;20.70;89.50;;;;;;5048158;28;20337;-80
2022/05/03 09:49:46;;;;;;;8.95;5.70;;;;;;;;;;5046456;28;20120;-85
2022/05/03 09:52:35;;;;;;;9.30;5.70;;;21.00;89.80;;;;;;5040300;28;20044;-82
2022/05/03 09:55:07;;;;;;;7.22;5.40;;;21.00;90.20;;;;;;5054726;28;20025;-85
2022/05/03 09:57:40;;;;;;;11.13;5.50;;;21.20;87.90;;;;;;5058893;28;20499;-82
2022/05/03 10:00:11;;;;;;;8.60;5.82;;;21.40;86.80;;;;;;5041503;28;20705;-82
2022/05/03 10:02:40;;;;;;;8.15;5.80;;;21.20;86.30;;;;;;5036332;28;20029;-83
2022/05/03 10:05:07;;;;;;;8.88;5.80;;;21.00;87.10;;;;;;5048751;28;20039;-81
2022/05/03 10:07:35;;;;;;;6.88;5.25;;;21.20;86.70;;;;;;5034037;28;20029;-83
2022/05/03 10:10:07;;;;;;;7.57;6.18;;;21.30;85.60;;;;;;5034603;28;20035;-82
2022/05/03 10:12:35;;;;;;;8.75;5.85;;;21.40;85.30;;;;;;5056844;28;20028;-84
2022/05/03 10:15:01;;;;;;;8.07;5.75;;;;;;;;;;5035270;28;20029;-84
2022/05/03 10:20:40;;;;;;;;;;;21.70;83.40;;;;;;5045291;28;20097;-83
2022/05/03 10:23:22;;;;;;;9.68;5.78;;;;;;;;;;5045407;28;19917;-84
2022/05/03 10:25:48;;;;;;;8.55;5.53;;;;;;;;;;5040001;28;20123;-84
2022/05/03 10:28:14;;;;;;;8.85;5.55;;;;;;;;;;5035594;28;20111;-83
2022/05/03 10:31:05;;;;;;;7.55;5.45;;;21.90;80.00;;;;;;5052894;28;20029;-85
2022/05/03 10:33:31;;;;;;;11.95;5.70;;;;;;;;;;5040872;28;20017;-89
2022/05/03 10:35:58;;;;;;;9.80;5.72;;;;;;;;;;5069419;28;20032;-87
2022/05/03 10:38:46;;;;;;;8.98;5.13;;;21.90;80.40;;;;;;5055909;28;20033;-86
2022/05/03 10:41:12;;;;;;;7.85;5.00;;;;;;;;;;5034344;28;20064;-82
2022/05/03 10:43:39;;;;;;;11.43;4.82;;;;;;;;;;5034808;28;20265;-87
2022/05/03 10:46:12;;;;;;;9.52;5.47;;;;;;;;;;5050363;28;20037;-84
2022/05/03 10:48:41;;;;;;;7.40;4.85;;;;;;;;;;5045466;28;20037;-86
2022/05/03 10:51:12;;;;;;;6.85;5.40;;;21.30;81.70;;;;;;5030229;28;20120;-83
2022/05/03 10:53:40;;;;;;;7.38;5.30;;;21.10;82.80;;;;;;5047627;28;20055;-84
2022/05/03 10:56:16;;;;;;;10.30;5.57;;;21.10;82.80;;;;;;5046758;28;20124;-85
2022/05/03 10:58:45;;;;;;;8.30;5.63;;;21.00;82.00;;;;;;5032317;28;20036;-85
2022/05/03 11:01:23;;;;;;;10.82;5.63;;;21.00;82.30;;;;;;5056739;28;20447;-84
2022/05/03 11:03:51;;;;;;;10.38;6.10;;;;;;;;;;5053271;28;20029;-83
2022/05/03 11:06:20;;;;;;;6.45;5.00;;;;;;;;;;5050463;28;20021;-84
2022/05/03 11:11:39;;;;;;;8.15;5.82;;;22.10;83.10;;;;;;5050598;28;20037;-84
2022/05/03 11:14:05;;;;;;;9.40;5.30;;;21.00;82.30;;;;;;5037691;28;20033;-85
2022/05/03 11:16:34;;;;;;;7.35;5.05;;;21.20;81.50;;;;;;5041593;28;20025;-83
2022/05/03 11:19:10;;;;;;;6.25;4.60;;;21.40;79.50;;;;;;5032987;28;20025;-83
2022/05/03 11:21:36;;;;;;;7.47;4.72;;;21.50;78.20;;;;;;5054026;28;23810;-84
2022/05/03 11:24:02;;;;;;;6.45;4.40;;;;;;;;;;5036382;28;20180;-84
2022/05/03 11:26:28;;;;;;;7.35;4.50;;;21.60;75.70;;;;;;5048532;28;20099;-81
2022/05/03 11:28:57;;;;;;;8.70;5.70;;;21.30;76.10;;;;;;5046977;28;20033;-85
2022/05/03 11:31:25;;;;;;;6.85;4.50;;;21.20;77.00;;;;;;5034945;28;20040;-85
2022/05/03 11:33:58;;;;;;;7.95;4.70;;;21.10;76.30;;;;;;5048215;28;20028;-86
2022/05/03 11:36:28;;;;;;;7.53;4.90;;;;;;;;;;5032871;28;20030;-82
2022/05/03 11:38:56;;;;;;;7.70;4.80;;;21.90;77.10;;;;;;5055749;28;20112;-82
2022/05/03 11:41:23;;;;;;;7.80;4.70;;;21.10;76.70;;;;;;5030372;28;20028;-84
2022/05/03 11:43:49;;;;;;;8.27;4.05;;;;;;;;;;5038159;28;20033;-85
2022/05/03 11:46:19;;;;;;;5.78;4.47;;;21.80;74.60;;;;;;5064383;28;20123;-87
2022/05/03 11:48:45;;;;;;;;;;;21.90;75.00;;;;;;5042235;28;20025;-87
2022/05/03 11:56:46;;;;;;;5.78;4.10;;;21.90;74.10;;;;;;5049532;28;20040;-83
2022/05/03 11:59:13;;;;;;;6.13;4.47;;;21.90;74.30;;;;;;5050300;28;20033;-86
2022/05/03 12:01:38;;;;;;;7.32;4.43;;;21.50;74.40;;;;;;5040293;28;20490;-83
2022/05/03 12:04:05;;;;;;;7.05;4.30;;;21.50;74.80;;;;;;5052820;28;20101;-84
2022/05/03 12:06:45;;;;;;;7.75;4.70;;;21.40;74.80;;;;;;5053564;28;20020;-86
2022/05/03 12:09:12;;;;;;;6.90;4.45;;;;;;;;;;5049361;28;20029;-84
2022/05/03 12:14:34;;;;;;;5.07;4.10;;;;;;;;;;5052464;28;20050;-85
2022/05/03 12:17:01;;;;;;;5.63;4.18;;;;;;;;;;5050129;28;20040;-86
2022/05/03 12:19:35;;;;;;;5.88;4.20;;;21.10;75.00;;;;;;5053773;28;20032;-83
2022/05/03 12:22:12;;;;;;;10.50;4.88;;;21.10;75.10;;;;;;5051894;28;23715;-85
2022/05/03 12:24:41;;;;;;;7.90;4.15;;;21.50;75.00;;;;;;5041261;28;20036;-84
2022/05/03 12:27:12;;;;;;;4.93;4.13;;;;;;;;;;5039532;28;20034;-85
2022/05/03 12:29:44;;;;;;;5.10;4.10;;;21.70;72.90;;;;;;5057965;28;20025;-84
2022/05/03 12:32:14;;;;;;;5.75;3.95;;;21.70;73.30;;;;;;5042962;28;22801;-83
2022/05/03 12:34:43;;;;;;;6.95;4.00;;;21.70;72.90;;;;;;5056777;28;20029;-82
2022/05/03 12:37:09;;;;;;;8.35;4.18;;;;;;;;;;5060045;28;20028;-84
2022/05/03 12:39:36;;;;;;;6.28;4.50;;;21.90;72.30;;;;;;5048712;28;20475;-84
2022/05/03 12:42:09;;;;;;;8.15;4.40;;;21.90;72.70;;;;;;5053587;28;20108;-84
2022/05/03 12:44:49;;;;;;;8.27;4.63;;;21.90;72.70;;;;;;5052650;28;20031;-83
2022/05/03 12:47:15;;;;;;;5.80;4.18;;;;;;;;;;5059128;28;20021;-87
2022/05/03 12:49:42;;;;;;;7.10;4.45;;;;;;;;;;5055616;28;20025;-85
2022/05/03 12:52:08;;;;;;;5.35;4.00;;;;;;;;;;5035680;28;20029;-86
2022/05/03 12:54:39;;;;;;;8.38;4.00;;;21.70;70.50;;;;;;5034425;28;20044;-84
2022/05/03 12:59:49;;;;;;;7.07;3.90;;;;;;;;;;5053625;28;20068;-84
2022/05/03 13:02:15;;;;;;;7.55;3.95;;;21.80;70.00;;;;;;5061874;28;20024;-84
2022/05/03 13:04:41;;;;;;;7.05;4.03;;;;;;;;;;5042614;28;20078;-84
2022/05/03 13:07:07;;;;;;;5.50;3.80;;;;;;;;;;5053345;28;20446;-85
2022/05/03 13:09:33;;;;;;;6.57;3.60;;;;;;;;;;5055888;28;20040;-83
2022/05/03 13:12:00;;;;;;;9.82;4.10;;;;;;;;;;5052171;28;20036;-83
2022/05/03 13:14:26;;;;;;;4.65;4.13;;;;;;;;;;5052748;28;20021;-84
2022/05/03 13:16:52;;;;;;;6.10;3.50;;;;;;;;;;5038816;28;20021;-83
2022/05/03 13:19:18;;;;;;;6.57;3.45;;;;;;;;;;5061623;28;20029;-83
2022/05/03 13:21:45;;;;;;;7.63;3.63;;;;;;;;;;5038915;28;20052;-84
2022/05/03 13:24:12;;;;;;;5.22;3.30;;;22.10;68.90;;;;;;5057926;28;20041;-83
2022/05/03 13:26:39;;;;;;;4.72;3.33;;;;;;;;;;5057546;28;20549;-85
2022/05/03 13:29:11;;;;;;;6.22;3.17;;;22.10;67.90;;;;;;5054288;28;20029;-86
2022/05/03 13:31:38;;;;;;;5.50;3.42;;;22.20;68.90;;;;;;5052455;28;20111;-85
2022/05/03 13:34:04;;;;;;;6.78;3.42;;;;;;;;;;5059128;28;20021;-85
2022/05/03 13:41:59;;;;;;;3.97;3.17;;;22.80;66.40;;;;;;5052864;28;20073;-83
2022/05/03 13:44:25;;;;;;;6.60;3.05;;;23.20;64.90;;;;;;5038322;28;20085;-85
2022/05/03 13:46:52;;;;;;;5.65;2.90;;;;;;;;;;5040495;28;20028;-84
2022/05/03 13:49:19;;;;;;;4.32;3.10;;;;;;;;;;5038031;28;20029;-86
2022/05/03 13:51:45;;;;;;;5.50;3.05;;;;;;;;;;5051034;28;20513;-84
2022/05/03 13:54:12;;;;;;;5.47;3.33;;;24.40;62.20;;;;;;5051116;28;20017;-83
2022/05/03 13:56:37;;;;;;;5.90;3.67;;;23.90;66.80;;;;;;5033348;28;20017;-82
2022/05/03 13:59:04;;;;;;;7.80;4.00;;;;;;;;;;5029160;28;20105;-84